Oscar Tybring IV — LAGK — position and weather

sailwx.info

Track history (hours):
 
Tides and Currents Weather Stations Pressure Air Temp Water Temp Dewpoint Dewpoint Depression Visibility Wind Speed Wind Dir Waves Ship Positions

Oscar Tybring IV

Last reported at 2017-May-25 13:30 UTC. Time now 2017-May-25 14:25 UTC.
Position N 58°06' E 006°48'.

Length 20 m.

Type: SAR. MMSI: 257231500.

Date/timePositionNaut miles runAvg speedWind from/ knotsBaromVisibWave heightAir tempDewpointWater temp
2017-May-25 13:30N 58°06' E 006°48'0 0.0
2017-May-25 13:00N 58°06' E 006°48'0 0.0
2017-May-25 12:30N 58°06' E 006°48'0 0.0
2017-May-25 12:00N 58°06' E 006°48'0 0.0
2017-May-25 11:30N 58°06' E 006°48'0 0.0
2017-May-25 11:00N 58°06' E 006°48'0 0.0
2017-May-25 10:30N 58°06' E 006°48'0 0.0
2017-May-25 10:00N 58°06' E 006°48'1 1.2
2017-May-25 09:30N 58°05' E 006°49'714.6
2017-May-25 09:00N 58°02' E 006°37'3 6.2
2017-May-25 08:30N 58°02' E 006°43'5 9.0
2017-May-25 08:00N 58°06' E 006°48'0 0.0
2017-May-25 07:29N 58°06' E 006°48'0 0.0
2017-May-25 07:00N 58°06' E 006°48'0 0.0
2017-May-25 06:29N 58°06' E 006°48'0 0.0
2017-May-25 06:00N 58°06' E 006°48'0 0.0
2017-May-25 05:30N 58°06' E 006°48'0 0.0
2017-May-25 05:00N 58°06' E 006°48'0 0.0
2017-May-25 04:30N 58°06' E 006°48'0 0.0
2017-May-25 04:00N 58°06' E 006°48'0 0.0
2017-May-25 03:30N 58°06' E 006°48'0 0.0
2017-May-25 03:00N 58°06' E 006°48'0 0.0
2017-May-25 02:30N 58°06' E 006°48'0 0.0
2017-May-25 02:00N 58°06' E 006°48'0 0.0
2017-May-25 01:30N 58°06' E 006°48'0 0.0
2017-May-25 01:00N 58°06' E 006°48'0 0.0
2017-May-25 00:30N 58°06' E 006°48'0 0.0
2017-May-25 00:00N 58°06' E 006°48'0 0.0
2017-May-24 23:30N 58°06' E 006°48'0 0.0
2017-May-24 23:00N 58°06' E 006°48'0 0.0
2017-May-24 22:30N 58°06' E 006°48'0 0.0
2017-May-24 22:00N 58°06' E 006°48'0 0.0
2017-May-24 21:30N 58°06' E 006°48'0 0.0
2017-May-24 21:00N 58°06' E 006°48'0 0.0
2017-May-24 20:30N 58°06' E 006°48'0 0.0
2017-May-24 20:00N 58°06' E 006°48'0 0.0
2017-May-24 19:30N 58°06' E 006°48'0 0.0
2017-May-24 19:00N 58°06' E 006°48'0 0.0
2017-May-24 18:30N 58°06' E 006°48'0 0.0
2017-May-24 17:59N 58°06' E 006°48'0 0.0
2017-May-24 17:30N 58°06' E 006°48'1 1.7
2017-May-24 17:00N 58°05' E 006°50'510.1
2017-May-24 16:31N 58°02' E 006°58'611.3
2017-May-24 15:59N 58°06' E 006°48'0 0.0
2017-May-24 15:30N 58°06' E 006°48'0 0.0
2017-May-24 15:00N 58°06' E 006°48'0 0.0
2017-May-24 14:30N 58°06' E 006°48'0 0.0
2017-May-24 13:31N 58°06' E 006°48'0 0.0
2017-May-24 13:01N 58°06' E 006°48'0 0.0
2017-May-24 12:31N 58°06' E 006°48'0 0.0
2017-May-24 12:00N 58°06' E 006°48'0 0.0
2017-May-24 11:31N 58°06' E 006°48'0 0.0
2017-May-24 11:00N 58°06' E 006°48'0 0.0
2017-May-24 10:30N 58°06' E 006°48'0 0.0
2017-May-24 10:00N 58°06' E 006°48'2 3.3
2017-May-24 09:30N 58°05' E 006°51'2 3.3
2017-May-24 09:00N 58°06' E 006°48'0 0.0
2017-May-24 08:30N 58°06' E 006°48'0 0.0
2017-May-24 08:00N 58°06' E 006°48'0 0.0
2017-May-24 07:30N 58°06' E 006°48'0 0.0
2017-May-24 07:00N 58°06' E 006°48'4 7.3
2017-May-24 06:30N 58°02' E 006°50'3 6.4
2017-May-24 06:00N 58°05' E 006°49'1 1.0
2017-May-24 05:30N 58°06' E 006°48'0 0.0
2017-May-24 05:00N 58°06' E 006°48'0 0.0
2017-May-24 04:30N 58°06' E 006°48'0 0.0
2017-May-24 04:00N 58°06' E 006°48'0 0.0
2017-May-24 03:30N 58°06' E 006°48'0 0.0
2017-May-24 03:00N 58°06' E 006°48'0 0.0
2017-May-24 02:30N 58°06' E 006°48'0 0.0
2017-May-24 02:00N 58°06' E 006°48'0 0.0
2017-May-24 01:30N 58°06' E 006°48'0 0.0
2017-May-24 01:00N 58°06' E 006°48'0 0.0
2017-May-24 00:30N 58°06' E 006°48'0 0.0
2017-May-24 00:00N 58°06' E 006°48'0 0.0
2017-May-23 23:30N 58°06' E 006°48'0 0.0
2017-May-23 23:00N 58°06' E 006°48'0 0.0
2017-May-23 22:30N 58°06' E 006°48'0 0.0
2017-May-23 22:00N 58°06' E 006°48'0 0.0
2017-May-23 21:30N 58°06' E 006°48'0 0.0
2017-May-23 21:00N 58°06' E 006°48'0 0.0
2017-May-23 20:30N 58°06' E 006°48'0 0.0
2017-May-23 20:00N 58°06' E 006°48'0 0.0
2017-May-23 19:30N 58°06' E 006°48'0 0.0
2017-May-23 19:00N 58°06' E 006°48'0 0.0
2017-May-23 18:30N 58°06' E 006°48'0 0.0
2017-May-23 18:00N 58°06' E 006°48'1 1.3
2017-May-23 17:30N 58°05' E 006°49'510.7
2017-May-23 17:00N 58°03' E 006°58'510.4
2017-May-23 16:30N 58°05' E 006°50'1 1.6
2017-May-23 16:00N 58°06' E 006°48'0 0.0
2017-May-23 15:30N 58°06' E 006°48'0 0.0
2017-May-23 15:00N 58°06' E 006°48'0 0.0
2017-May-23 14:30N 58°06' E 006°48'0 0.0
2017-May-23 13:30N 58°06' E 006°48'0 0.0
2017-May-23 13:00N 58°06' E 006°48'0 0.0
2017-May-23 12:30N 58°06' E 006°48'0 0.0
2017-May-23 12:00N 58°06' E 006°48'0 0.0
2017-May-23 11:30N 58°06' E 006°48'0 0.0
2017-May-23 11:00N 58°06' E 006°48'0 0.0
2017-May-23 10:30N 58°06' E 006°48'0 0.0
2017-May-23 10:00N 58°06' E 006°48'0 0.0
2017-May-23 09:30N 58°06' E 006°48'3 6.7
2017-May-23 09:00N 58°03' E 006°50'3 6.7
2017-May-23 08:30N 58°06' E 006°48'0 0.0
2017-May-23 08:00N 58°06' E 006°48'0 0.0
2017-May-23 07:30N 58°06' E 006°48'0 0.0
2017-May-23 07:00N 58°06' E 006°48'0 0.0
2017-May-23 06:30N 58°06' E 006°48'0 0.0
2017-May-23 06:00N 58°06' E 006°48'0 0.0
2017-May-23 05:30N 58°06' E 006°48'0 0.0
2017-May-23 05:00N 58°06' E 006°48'0 0.0
2017-May-23 04:30N 58°06' E 006°48'0 0.0
2017-May-23 04:00N 58°06' E 006°48'0 0.0
2017-May-23 03:30N 58°06' E 006°48'0 0.0
2017-May-23 03:00N 58°06' E 006°48'0 0.0
2017-May-23 02:30N 58°06' E 006°48'0 0.0
2017-May-23 02:00N 58°06' E 006°48'0 0.0
2017-May-23 01:30N 58°06' E 006°48'0 0.0
2017-May-23 01:00N 58°06' E 006°48'0 0.0
2017-May-23 00:30N 58°06' E 006°48'0 0.0
2017-May-23 00:00N 58°06' E 006°48'0 0.0
2017-May-22 23:30N 58°06' E 006°48'0 0.0
2017-May-22 23:00N 58°06' E 006°48'0 0.0
2017-May-22 22:30N 58°06' E 006°48'0 0.0
2017-May-22 22:00N 58°06' E 006°48'0 0.0
2017-May-22 21:30N 58°06' E 006°48'0 0.0
2017-May-22 21:00N 58°06' E 006°48'0 0.0
2017-May-22 20:30N 58°06' E 006°48'0 0.0
2017-May-22 20:00N 58°06' E 006°48'2 4.2
2017-May-22 19:30N 58°04' E 006°51'2 4.2
2017-May-22 19:01N 58°06' E 006°48'0 0.0
2017-May-22 18:30N 58°06' E 006°48'0 0.0
2017-May-22 18:00N 58°06' E 006°48'0 0.0
2017-May-22 17:30N 58°06' E 006°48'0 0.0
2017-May-22 17:00N 58°06' E 006°48'0 0.0
2017-May-22 16:30N 58°06' E 006°48'0 0.0
2017-May-22 16:00N 58°06' E 006°48'3 7.0
2017-May-22 15:31N 58°03' E 006°53'2 4.0
2017-May-22 15:00N 58°03' E 006°57'5 5.4
2017-May-22 14:01N 58°06' E 006°48'0 0.0
2017-May-22 13:30N 58°06' E 006°48'0 0.0
2017-May-22 13:00N 58°06' E 006°48'0 0.0
2017-May-22 12:30N 58°06' E 006°48'0 0.0
2017-May-22 12:00N 58°06' E 006°48'0 0.0
2017-May-22 11:30N 58°06' E 006°48'0 0.0
2017-May-22 11:00N 58°06' E 006°48'0 0.0
2017-May-22 10:30N 58°06' E 006°48'0 0.7
2017-May-22 10:01N 58°05' E 006°49'0 0.7
2017-May-22 09:30N 58°06' E 006°48'0 0.0
2017-May-22 09:00N 58°06' E 006°48'0 0.0
2017-May-22 08:30N 58°06' E 006°48'0 0.0
2017-May-22 08:00N 58°06' E 006°48'0 0.0
2017-May-22 07:30N 58°06' E 006°48'0 0.0
2017-May-22 07:00N 58°06' E 006°48'0 0.0
2017-May-22 06:30N 58°06' E 006°48'0 0.0
2017-May-22 06:00N 58°06' E 006°48'0 0.0
2017-May-22 05:30N 58°06' E 006°48'0 0.0
2017-May-22 05:00N 58°06' E 006°48'0 0.0
2017-May-22 04:30N 58°06' E 006°48'0 0.0
2017-May-22 04:00N 58°06' E 006°48'0 0.0
2017-May-22 03:30N 58°06' E 006°48'0 0.0
2017-May-22 03:00N 58°06' E 006°48'0 0.0
2017-May-22 02:30N 58°06' E 006°48'0 0.0
2017-May-22 02:00N 58°06' E 006°48'0 0.0
2017-May-22 01:30N 58°06' E 006°48'0 0.0
2017-May-22 01:00N 58°06' E 006°48'0 0.0
2017-May-22 00:30N 58°06' E 006°48'0 0.0
2017-May-22 00:00N 58°06' E 006°48'0 0.0
2017-May-21 23:30N 58°06' E 006°48'0 0.0
2017-May-21 23:00N 58°06' E 006°48'0 0.0
2017-May-21 22:30N 58°06' E 006°48'0 0.0
2017-May-21 22:00N 58°06' E 006°48'0 0.0
2017-May-21 21:30N 58°06' E 006°48'0 0.0
2017-May-21 21:00N 58°06' E 006°48'0 0.0
2017-May-21 20:30N 58°06' E 006°48'0 0.0
2017-May-21 20:00N 58°06' E 006°48'0 0.0
2017-May-21 19:30N 58°06' E 006°48'0 0.0
2017-May-21 19:00N 58°06' E 006°48'0 0.0
2017-May-21 18:30N 58°06' E 006°48'0 0.0
2017-May-21 18:00N 58°06' E 006°48'0 0.0
2017-May-21 17:30N 58°06' E 006°48'0 0.0
2017-May-21 17:00N 58°06' E 006°48'2 3.6
2017-May-21 16:30N 58°04' E 006°51'5 9.1
2017-May-21 16:00N 58°03' E 006°59'612.4
2017-May-21 15:30N 58°06' E 006°49'0 0.1
2017-May-21 15:00N 58°06' E 006°48'0 0.0
2017-May-21 14:30N 58°06' E 006°48'0 0.0
2017-May-21 13:30N 58°06' E 006°48'0 0.0
2017-May-21 13:00N 58°06' E 006°48'0 0.0
2017-May-21 12:30N 58°06' E 006°48'0 0.0
2017-May-21 12:00N 58°06' E 006°48'0 0.0
2017-May-21 11:30N 58°06' E 006°48'0 0.0
2017-May-21 11:00N 58°06' E 006°48'0 0.0
2017-May-21 10:30N 58°06' E 006°48'0 0.0
2017-May-21 10:00N 58°06' E 006°48'0 0.0
2017-May-21 09:30N 58°06' E 006°48'0 0.0
2017-May-21 09:00N 58°06' E 006°48'0 0.0
2017-May-21 08:30N 58°06' E 006°48'0 0.0
2017-May-21 08:00N 58°06' E 006°48'0 0.0
2017-May-21 07:30N 58°06' E 006°48'4 9.0
2017-May-21 07:00N 58°01' E 006°50'4 8.3
2017-May-21 06:30N 58°05' E 006°49'0 0.9
2017-May-21 06:00N 58°06' E 006°48'0 0.0
2017-May-21 05:30N 58°06' E 006°48'0 0.0
2017-May-21 05:00N 58°06' E 006°48'0 0.0
2017-May-21 04:30N 58°06' E 006°48'0 0.0
2017-May-21 04:00N 58°06' E 006°48'0 0.0
2017-May-21 03:30N 58°06' E 006°48'0 0.0
2017-May-21 03:00N 58°06' E 006°48'0 0.0
2017-May-21 02:30N 58°06' E 006°48'0 0.0
2017-May-21 02:00N 58°06' E 006°48'0 0.0
2017-May-21 01:30N 58°06' E 006°48'0 0.0
2017-May-21 01:00N 58°06' E 006°48'0 0.0
2017-May-21 00:30N 58°06' E 006°48'2 4.9
2017-May-21 00:01N 58°04' E 006°51'2 4.5
2017-May-20 23:30N 58°06' E 006°49'0 0.4
2017-May-20 23:00N 58°06' E 006°48'0 0.0
2017-May-20 22:30N 58°06' E 006°48'0 0.0
2017-May-20 22:01N 58°06' E 006°48'0 0.0
2017-May-20 21:30N 58°06' E 006°48'0 0.0
2017-May-20 21:00N 58°06' E 006°48'0 0.0
2017-May-20 20:30N 58°06' E 006°48'0 0.0
2017-May-20 20:00N 58°06' E 006°48'0 0.0
2017-May-20 19:30N 58°06' E 006°48'0 0.0
2017-May-20 19:00N 58°06' E 006°48'0 0.0
2017-May-20 18:30N 58°06' E 006°48'0 0.0
2017-May-20 18:00N 58°06' E 006°48'0 0.0
2017-May-20 17:30N 58°06' E 006°48'0 0.0
2017-May-20 17:00N 58°06' E 006°48'0 0.0
2017-May-20 16:30N 58°06' E 006°48'0 0.0
2017-May-20 15:59N 58°06' E 006°48'0 0.0
2017-May-20 15:31N 58°06' E 006°48'0 0.0
2017-May-20 14:59N 58°06' E 006°48'0 0.0
2017-May-20 14:30N 58°06' E 006°48'0 0.0
2017-May-20 13:29N 58°06' E 006°48'0 0.0
2017-May-20 12:59N 58°06' E 006°48'0 0.0
2017-May-20 12:30N 58°06' E 006°48'0 0.0
2017-May-20 12:00N 58°06' E 006°48'0 0.0
2017-May-20 11:30N 58°06' E 006°48'0 0.0
2017-May-20 10:58N 58°06' E 006°48'0 0.0
2017-May-20 10:29N 58°06' E 006°48'0 0.0
2017-May-20 10:00N 58°06' E 006°48'0 0.0
2017-May-20 09:29N 58°06' E 006°48'5 9.6
2017-May-20 09:00N 58°03' E 006°56'0 0.8
2017-May-20 08:30N 58°03' E 006°55'4 8.2
2017-May-20 07:59N 58°06' E 006°48'0 0.0
2017-May-20 07:30N 58°06' E 006°48'0 0.0
2017-May-20 06:59N 58°06' E 006°48'0 0.0
2017-May-20 06:30N 58°06' E 006°48'0 0.0
2017-May-20 06:00N 58°06' E 006°48'0 0.0
2017-May-20 05:28N 58°06' E 006°48'0 0.0
2017-May-20 04:58N 58°06' E 006°48'0 0.0
2017-May-20 04:30N 58°06' E 006°48'0 0.0
2017-May-20 04:00N 58°06' E 006°48'0 0.0
2017-May-20 03:29N 58°06' E 006°48'0 0.0
2017-May-20 02:59N 58°06' E 006°48'0 0.0
2017-May-20 02:29N 58°06' E 006°48'0 0.0
2017-May-20 01:59N 58°06' E 006°48'0 0.0
2017-May-20 01:30N 58°06' E 006°48'0 0.0
2017-May-20 00:59N 58°06' E 006°48'0 0.0
2017-May-20 00:30N 58°06' E 006°48'0 0.0
2017-May-19 23:59N 58°06' E 006°48'0 0.0
2017-May-19 23:30N 58°06' E 006°48'0 0.0
2017-May-19 23:00N 58°06' E 006°48'0 0.0
2017-May-19 22:30N 58°06' E 006°48'0 0.0
2017-May-19 22:00N 58°06' E 006°48'0 0.0
2017-May-19 21:29N 58°06' E 006°48'0 0.0
2017-May-19 20:59N 58°06' E 006°48'0 0.0
2017-May-19 20:29N 58°06' E 006°48'0 0.0
2017-May-19 20:01N 58°06' E 006°48'0 0.0
2017-May-19 19:29N 58°06' E 006°48'0 0.0
2017-May-19 19:00N 58°06' E 006°48'0 0.0
2017-May-19 18:29N 58°06' E 006°48'0 0.0
2017-May-19 18:00N 58°06' E 006°48'0 0.0
2017-May-19 17:30N 58°06' E 006°48'0 0.0
2017-May-19 17:00N 58°06' E 006°48'0 0.0
2017-May-19 16:30N 58°06' E 006°48'0 0.0
2017-May-19 16:00N 58°06' E 006°48'3 6.6
2017-May-19 15:29N 58°02' E 006°50'3 6.1
2017-May-19 15:00N 58°05' E 006°49'0 0.5
2017-May-19 14:00N 58°06' E 006°48'0 0.0
2017-May-19 13:30N 58°06' E 006°48'0 0.0
2017-May-19 13:00N 58°06' E 006°48'0 0.0
2017-May-19 12:30N 58°06' E 006°48'0 0.0
2017-May-19 12:00N 58°06' E 006°48'4 7.9
2017-May-19 11:30N 58°03' E 006°54'2 3.4
2017-May-19 11:00N 58°04' E 006°52'2 4.5
2017-May-19 10:30N 58°06' E 006°48'0 0.0
2017-May-19 10:00N 58°06' E 006°48'0 0.0
2017-May-19 09:30N 58°06' E 006°48'0 0.0
2017-May-19 09:00N 58°06' E 006°48'0 0.0
2017-May-19 08:30N 58°06' E 006°48'0 0.0
2017-May-19 08:00N 58°06' E 006°48'0 0.0
2017-May-19 07:30N 58°06' E 006°48'0 0.0
2017-May-19 07:00N 58°06' E 006°48'0 0.0
2017-May-19 06:31N 58°06' E 006°48'0 0.0
2017-May-19 06:00N 58°06' E 006°48'4 8.8
2017-May-19 05:31N 58°01' E 006°48'4 8.1
2017-May-19 05:00N 58°05' E 006°49'1 1.0
2017-May-19 04:30N 58°06' E 006°48'0 0.0
2017-May-19 04:00N 58°06' E 006°48'0 0.0
2017-May-19 03:30N 58°06' E 006°48'0 0.0
2017-May-19 03:00N 58°06' E 006°48'0 0.0
2017-May-19 02:30N 58°06' E 006°48'0 0.0
2017-May-19 02:00N 58°06' E 006°48'0 0.0
2017-May-19 01:30N 58°06' E 006°48'0 0.0
2017-May-19 01:00N 58°06' E 006°48'0 0.0
2017-May-19 00:30N 58°06' E 006°48'0 0.0
2017-May-19 00:00N 58°06' E 006°48'0 0.0
2017-May-18 23:30N 58°06' E 006°48'0 0.0
2017-May-18 23:00N 58°06' E 006°48'0 0.0
2017-May-18 22:30N 58°06' E 006°48'0 0.0
2017-May-18 22:00N 58°06' E 006°48'0 0.0
2017-May-18 21:30N 58°06' E 006°48'0 0.0
2017-May-18 21:00N 58°06' E 006°48'0 0.0
2017-May-18 20:30N 58°06' E 006°48'0 0.0
2017-May-18 20:00N 58°06' E 006°48'0 0.0
2017-May-18 19:30N 58°06' E 006°48'0 0.0
2017-May-18 19:00N 58°06' E 006°48'0 0.0
2017-May-18 18:30N 58°06' E 006°48'0 0.0
2017-May-18 18:00N 58°06' E 006°48'0 0.0
2017-May-18 17:30N 58°06' E 006°48'0 0.0
2017-May-18 17:00N 58°06' E 006°48'0 0.0
2017-May-18 16:30N 58°06' E 006°48'0 0.0
2017-May-18 16:00N 58°06' E 006°48'0 0.0
2017-May-18 15:30N 58°06' E 006°48'0 0.0
2017-May-18 15:00N 58°06' E 006°48'0 0.0
2017-May-18 14:00N 58°06' E 006°48'0 0.0
2017-May-18 13:30N 58°06' E 006°48'0 0.0
2017-May-18 13:00N 58°06' E 006°48'0 0.0
2017-May-18 12:30N 58°06' E 006°48'0 0.0
2017-May-18 12:00N 58°06' E 006°48'0 0.0
2017-May-18 11:30N 58°06' E 006°48'0 0.8
2017-May-18 11:00N 58°06' E 006°49'0 0.8
2017-May-18 10:30N 58°06' E 006°48'0 0.0
2017-May-18 10:00N 58°06' E 006°48'0 0.0
2017-May-18 09:30N 58°06' E 006°48'0 0.0
2017-May-18 09:00N 58°06' E 006°48'0 0.0
2017-May-18 08:30N 58°06' E 006°48'0 0.0
2017-May-18 08:00N 58°06' E 006°48'0 0.0
2017-May-18 07:30N 58°06' E 006°48'0 0.0
2017-May-18 07:00N 58°06' E 006°48'0 0.0
2017-May-18 06:30N 58°06' E 006°48'0 0.0
2017-May-18 06:00N 58°06' E 006°48'0 0.0
2017-May-18 05:30N 58°06' E 006°48'0 0.0
2017-May-18 05:00N 58°06' E 006°48'0 0.0
2017-May-18 04:30N 58°06' E 006°48'1 2.9
2017-May-18 04:00N 58°05' E 006°50'1 2.5
2017-May-18 03:30N 58°06' E 006°49'0 0.5
2017-May-18 03:00N 58°06' E 006°48'0 0.0
2017-May-18 02:30N 58°06' E 006°48'0 0.0
2017-May-18 02:00N 58°06' E 006°48'0 0.0
2017-May-18 01:30N 58°06' E 006°48'0 0.0
2017-May-18 01:00N 58°06' E 006°48'0 0.0
2017-May-18 00:30N 58°06' E 006°48'0 0.0
2017-May-18 00:00N 58°06' E 006°48'0 0.0
2017-May-17 23:30N 58°06' E 006°48'0 0.0
2017-May-17 23:00N 58°06' E 006°48'0 0.0
2017-May-17 22:30N 58°06' E 006°48'0 0.0
2017-May-17 22:00N 58°06' E 006°48'0 0.0
2017-May-17 21:30N 58°06' E 006°48'0 0.0
2017-May-17 21:00N 58°06' E 006°48'0 0.0
2017-May-17 20:30N 58°06' E 006°48'0 0.0
2017-May-17 20:01N 58°06' E 006°48'0 0.0
2017-May-17 19:30N 58°06' E 006°48'0 0.0
2017-May-17 19:00N 58°06' E 006°48'0 0.0
2017-May-17 18:30N 58°06' E 006°48'0 0.0
2017-May-17 18:00N 58°06' E 006°48'0 0.0
2017-May-17 17:30N 58°06' E 006°48'0 0.0
2017-May-17 17:00N 58°06' E 006°48'0 0.0
2017-May-17 16:30N 58°06' E 006°48'0 0.0
2017-May-17 16:00N 58°06' E 006°48'0 0.0
2017-May-17 15:30N 58°06' E 006°48'0 0.0
2017-May-17 15:00N 58°06' E 006°48'0 0.0
2017-May-17 14:00N 58°06' E 006°48'0 0.0
2017-May-17 13:30N 58°06' E 006°48'0 0.0
2017-May-17 13:00N 58°06' E 006°48'0 0.0
2017-May-17 12:30N 58°06' E 006°48'0 0.0
2017-May-17 12:00N 58°06' E 006°48'0 0.0
2017-May-17 11:30N 58°06' E 006°48'0 0.0
2017-May-17 11:00N 58°06' E 006°48'0 0.0
2017-May-17 10:30N 58°06' E 006°48'0 0.0
2017-May-17 10:00N 58°06' E 006°48'0 0.0
2017-May-17 09:30N 58°06' E 006°48'0 0.0
2017-May-17 09:00N 58°06' E 006°48'0 0.0
2017-May-17 08:30N 58°06' E 006°48'0 0.0
2017-May-17 08:00N 58°06' E 006°48'0 0.0
2017-May-17 07:30N 58°06' E 006°48'0 0.0
2017-May-17 07:00N 58°06' E 006°48'0 0.0
2017-May-17 06:30N 58°06' E 006°48'0 0.0
2017-May-17 06:00N 58°06' E 006°48'0 0.0
2017-May-17 05:30N 58°06' E 006°48'0 0.0
2017-May-17 05:00N 58°06' E 006°48'0 0.0
2017-May-17 04:30N 58°06' E 006°48'0 0.0
2017-May-17 04:00N 58°06' E 006°48'0 0.0
2017-May-17 03:30N 58°06' E 006°48'0 0.0
2017-May-17 03:00N 58°06' E 006°48'0 0.0
2017-May-17 02:30N 58°06' E 006°48'0 0.0
2017-May-17 02:00N 58°06' E 006°48'0 0.0
2017-May-17 01:30N 58°06' E 006°48'0 0.0
2017-May-17 01:00N 58°06' E 006°48'0 0.0
2017-May-17 00:30N 58°06' E 006°48'0 0.0
2017-May-17 00:00N 58°06' E 006°48'0 0.0
2017-May-16 23:30N 58°06' E 006°48'0 0.0
2017-May-16 23:00N 58°06' E 006°48'0 0.0
2017-May-16 22:30N 58°06' E 006°48'0 0.0
2017-May-16 22:00N 58°06' E 006°48'0 0.0
2017-May-16 21:30N 58°06' E 006°48'0 0.0
2017-May-16 21:00N 58°06' E 006°48'0 0.0
2017-May-16 20:30N 58°06' E 006°48'0 0.0
2017-May-16 20:00N 58°06' E 006°48'0 0.0
2017-May-16 19:30N 58°06' E 006°48'0 0.0
2017-May-16 19:00N 58°06' E 006°48'0 0.0
2017-May-16 18:30N 58°06' E 006°48'0 0.0
2017-May-16 18:00N 58°06' E 006°48'1 1.7
2017-May-16 17:31N 58°05' E 006°50'510.7
2017-May-16 17:00N 58°03' E 006°59'611.7
2017-May-16 16:30N 58°05' E 006°49'1 1.2
2017-May-16 16:00N 58°06' E 006°48'0 0.0
2017-May-16 15:30N 58°06' E 006°48'0 0.0
2017-May-16 15:00N 58°06' E 006°48'0 0.0
2017-May-16 14:30N 58°06' E 006°48'0 0.0
2017-May-16 13:30N 58°06' E 006°48'0 0.0
2017-May-16 13:00N 58°06' E 006°48'2 3.5
2017-May-16 12:30N 58°04' E 006°51'2 3.5
2017-May-16 12:00N 58°06' E 006°48'0 0.0
2017-May-16 11:30N 58°06' E 006°48'0 0.0
2017-May-16 11:00N 58°06' E 006°48'0 0.0
2017-May-16 10:30N 58°06' E 006°48'0 0.0
2017-May-16 10:00N 58°06' E 006°48'0 0.0
2017-May-16 09:30N 58°06' E 006°48'3 6.1
2017-May-16 09:01N 58°03' E 006°51'2 3.1
2017-May-16 08:30N 58°04' E 006°51'2 3.6
2017-May-16 08:00N 58°06' E 006°48'0 0.0
2017-May-16 07:30N 58°06' E 006°48'0 0.0
2017-May-16 07:00N 58°06' E 006°48'0 0.0
2017-May-16 06:30N 58°06' E 006°48'0 0.0
2017-May-16 06:01N 58°06' E 006°48'0 0.0
2017-May-16 05:30N 58°06' E 006°48'0 0.0
2017-May-16 05:00N 58°06' E 006°48'0 0.0
2017-May-16 04:30N 58°06' E 006°48'0 0.0
2017-May-16 04:00N 58°06' E 006°48'0 0.0
2017-May-16 03:30N 58°06' E 006°48'4 7.4
2017-May-16 03:01N 58°02' E 006°50'4 7.3
2017-May-16 02:31N 58°06' E 006°48'0 0.1
2017-May-16 02:01N 58°06' E 006°48'0 0.0
2017-May-16 01:30N 58°06' E 006°48'0 0.0
2017-May-16 01:00N 58°06' E 006°48'0 0.0
2017-May-16 00:31N 58°06' E 006°48'0 0.0
2017-May-16 00:00N 58°06' E 006°48'0 0.0
2017-May-15 23:31N 58°06' E 006°48'0 0.0
2017-May-15 23:00N 58°06' E 006°48'0 0.0
2017-May-15 22:31N 58°06' E 006°48'0 0.0
2017-May-15 22:01N 58°06' E 006°48'0 0.0
2017-May-15 21:31N 58°06' E 006°48'0 0.0
2017-May-15 21:00N 58°06' E 006°48'0 0.0
2017-May-15 20:30N 58°06' E 006°48'0 0.0
2017-May-15 20:01N 58°06' E 006°48'0 0.0
2017-May-15 19:30N 58°06' E 006°48'0 0.0
2017-May-15 19:01N 58°06' E 006°48'0 0.0
2017-May-15 18:31N 58°06' E 006°48'2 4.2
2017-May-15 18:00N 58°04' E 006°51'4 8.6
2017-May-15 17:31N 58°03' E 006°59'612.4
2017-May-15 17:00N 58°06' E 006°48'0 0.0
2017-May-15 16:30N 58°06' E 006°48'0 0.0
2017-May-15 16:00N 58°06' E 006°48'0 0.0
2017-May-15 15:30N 58°06' E 006°48'0 0.0
2017-May-15 15:00N 58°06' E 006°48'0 0.0
2017-May-15 14:00N 58°06' E 006°48'  
Track history (hours):
 
Tides and Currents Weather Stations Pressure Air Temp Water Temp Dewpoint Dewpoint Depression Visibility Wind Speed Wind Dir Waves Ship Positions

Oscar Tybring IV

Last reported at 2017-May-25 13:30 UTC. Time now 2017-May-25 14:25 UTC.
Position N 58°06' E 006°48'.

Length 20 m.

Type: SAR. MMSI: 257231500.

Date/timePositionNaut miles runAvg speedWind from/ knotsBaromVisibWave heightAir tempDewpointWater temp
2017-May-25 13:30N 58°06' E 006°48'0 0.0
2017-May-25 13:00N 58°06' E 006°48'0 0.0
2017-May-25 12:30N 58°06' E 006°48'0 0.0
2017-May-25 12:00N 58°06' E 006°48'0 0.0
2017-May-25 11:30N 58°06' E 006°48'0 0.0
2017-May-25 11:00N 58°06' E 006°48'0 0.0
2017-May-25 10:30N 58°06' E 006°48'0 0.0
2017-May-25 10:00N 58°06' E 006°48'1 1.2
2017-May-25 09:30N 58°05' E 006°49'714.6
2017-May-25 09:00N 58°02' E 006°37'3 6.2
2017-May-25 08:30N 58°02' E 006°43'5 9.0
2017-May-25 08:00N 58°06' E 006°48'0 0.0
2017-May-25 07:29N 58°06' E 006°48'0 0.0
2017-May-25 07:00N 58°06' E 006°48'0 0.0
2017-May-25 06:29N 58°06' E 006°48'0 0.0
2017-May-25 06:00N 58°06' E 006°48'0 0.0
2017-May-25 05:30N 58°06' E 006°48'0 0.0
2017-May-25 05:00N 58°06' E 006°48'0 0.0
2017-May-25 04:30N 58°06' E 006°48'0 0.0
2017-May-25 04:00N 58°06' E 006°48'0 0.0
2017-May-25 03:30N 58°06' E 006°48'0 0.0
2017-May-25 03:00N 58°06' E 006°48'0 0.0
2017-May-25 02:30N 58°06' E 006°48'0 0.0
2017-May-25 02:00N 58°06' E 006°48'0 0.0
2017-May-25 01:30N 58°06' E 006°48'0 0.0
2017-May-25 01:00N 58°06' E 006°48'0 0.0
2017-May-25 00:30N 58°06' E 006°48'0 0.0
2017-May-25 00:00N 58°06' E 006°48'0 0.0
2017-May-24 23:30N 58°06' E 006°48'0 0.0
2017-May-24 23:00N 58°06' E 006°48'0 0.0
2017-May-24 22:30N 58°06' E 006°48'0 0.0
2017-May-24 22:00N 58°06' E 006°48'0 0.0
2017-May-24 21:30N 58°06' E 006°48'0 0.0
2017-May-24 21:00N 58°06' E 006°48'0 0.0
2017-May-24 20:30N 58°06' E 006°48'0 0.0
2017-May-24 20:00N 58°06' E 006°48'0 0.0
2017-May-24 19:30N 58°06' E 006°48'0 0.0
2017-May-24 19:00N 58°06' E 006°48'0 0.0
2017-May-24 18:30N 58°06' E 006°48'0 0.0
2017-May-24 17:59N 58°06' E 006°48'0 0.0
2017-May-24 17:30N 58°06' E 006°48'1 1.7
2017-May-24 17:00N 58°05' E 006°50'510.1
2017-May-24 16:31N 58°02' E 006°58'611.3
2017-May-24 15:59N 58°06' E 006°48'0 0.0
2017-May-24 15:30N 58°06' E 006°48'0 0.0
2017-May-24 15:00N 58°06' E 006°48'0 0.0
2017-May-24 14:30N 58°06' E 006°48'0 0.0
2017-May-24 13:31N 58°06' E 006°48'0 0.0
2017-May-24 13:01N 58°06' E 006°48'0 0.0
2017-May-24 12:31N 58°06' E 006°48'0 0.0
2017-May-24 12:00N 58°06' E 006°48'0 0.0
2017-May-24 11:31N 58°06' E 006°48'0 0.0
2017-May-24 11:00N 58°06' E 006°48'0 0.0
2017-May-24 10:30N 58°06' E 006°48'0 0.0
2017-May-24 10:00N 58°06' E 006°48'2 3.3
2017-May-24 09:30N 58°05' E 006°51'2 3.3
2017-May-24 09:00N 58°06' E 006°48'0 0.0
2017-May-24 08:30N 58°06' E 006°48'0 0.0
2017-May-24 08:00N 58°06' E 006°48'0 0.0
2017-May-24 07:30N 58°06' E 006°48'0 0.0
2017-May-24 07:00N 58°06' E 006°48'4 7.3
2017-May-24 06:30N 58°02' E 006°50'3 6.4
2017-May-24 06:00N 58°05' E 006°49'1 1.0
2017-May-24 05:30N 58°06' E 006°48'0 0.0
2017-May-24 05:00N 58°06' E 006°48'0 0.0
2017-May-24 04:30N 58°06' E 006°48'0 0.0
2017-May-24 04:00N 58°06' E 006°48'0 0.0
2017-May-24 03:30N 58°06' E 006°48'0 0.0
2017-May-24 03:00N 58°06' E 006°48'0 0.0
2017-May-24 02:30N 58°06' E 006°48'0 0.0
2017-May-24 02:00N 58°06' E 006°48'0 0.0
2017-May-24 01:30N 58°06' E 006°48'0 0.0
2017-May-24 01:00N 58°06' E 006°48'0 0.0
2017-May-24 00:30N 58°06' E 006°48'0 0.0
2017-May-24 00:00N 58°06' E 006°48'0 0.0
2017-May-23 23:30N 58°06' E 006°48'0 0.0
2017-May-23 23:00N 58°06' E 006°48'0 0.0
2017-May-23 22:30N 58°06' E 006°48'0 0.0
2017-May-23 22:00N 58°06' E 006°48'0 0.0
2017-May-23 21:30N 58°06' E 006°48'0 0.0
2017-May-23 21:00N 58°06' E 006°48'0 0.0
2017-May-23 20:30N 58°06' E 006°48'0 0.0
2017-May-23 20:00N 58°06' E 006°48'0 0.0
2017-May-23 19:30N 58°06' E 006°48'0 0.0
2017-May-23 19:00N 58°06' E 006°48'0 0.0
2017-May-23 18:30N 58°06' E 006°48'0 0.0
2017-May-23 18:00N 58°06' E 006°48'1 1.3
2017-May-23 17:30N 58°05' E 006°49'510.7
2017-May-23 17:00N 58°03' E 006°58'510.4
2017-May-23 16:30N 58°05' E 006°50'1 1.6
2017-May-23 16:00N 58°06' E 006°48'0 0.0
2017-May-23 15:30N 58°06' E 006°48'0 0.0
2017-May-23 15:00N 58°06' E 006°48'0 0.0
2017-May-23 14:30N 58°06' E 006°48'0 0.0
2017-May-23 13:30N 58°06' E 006°48'0 0.0
2017-May-23 13:00N 58°06' E 006°48'0 0.0
2017-May-23 12:30N 58°06' E 006°48'0 0.0
2017-May-23 12:00N 58°06' E 006°48'0 0.0
2017-May-23 11:30N 58°06' E 006°48'0 0.0
2017-May-23 11:00N 58°06' E 006°48'0 0.0
2017-May-23 10:30N 58°06' E 006°48'0 0.0
2017-May-23 10:00N 58°06' E 006°48'0 0.0
2017-May-23 09:30N 58°06' E 006°48'3 6.7
2017-May-23 09:00N 58°03' E 006°50'3 6.7
2017-May-23 08:30N 58°06' E 006°48'0 0.0
2017-May-23 08:00N 58°06' E 006°48'0 0.0
2017-May-23 07:30N 58°06' E 006°48'0 0.0
2017-May-23 07:00N 58°06' E 006°48'0 0.0
2017-May-23 06:30N 58°06' E 006°48'0 0.0
2017-May-23 06:00N 58°06' E 006°48'0 0.0
2017-May-23 05:30N 58°06' E 006°48'0 0.0
2017-May-23 05:00N 58°06' E 006°48'0 0.0
2017-May-23 04:30N 58°06' E 006°48'0 0.0
2017-May-23 04:00N 58°06' E 006°48'0 0.0
2017-May-23 03:30N 58°06' E 006°48'0 0.0
2017-May-23 03:00N 58°06' E 006°48'0 0.0
2017-May-23 02:30N 58°06' E 006°48'0 0.0
2017-May-23 02:00N 58°06' E 006°48'0 0.0
2017-May-23 01:30N 58°06' E 006°48'0 0.0
2017-May-23 01:00N 58°06' E 006°48'0 0.0
2017-May-23 00:30N 58°06' E 006°48'0 0.0
2017-May-23 00:00N 58°06' E 006°48'0 0.0
2017-May-22 23:30N 58°06' E 006°48'0 0.0
2017-May-22 23:00N 58°06' E 006°48'0 0.0
2017-May-22 22:30N 58°06' E 006°48'0 0.0
2017-May-22 22:00N 58°06' E 006°48'0 0.0
2017-May-22 21:30N 58°06' E 006°48'0 0.0
2017-May-22 21:00N 58°06' E 006°48'0 0.0
2017-May-22 20:30N 58°06' E 006°48'0 0.0
2017-May-22 20:00N 58°06' E 006°48'2 4.2
2017-May-22 19:30N 58°04' E 006°51'2 4.2
2017-May-22 19:01N 58°06' E 006°48'0 0.0
2017-May-22 18:30N 58°06' E 006°48'0 0.0
2017-May-22 18:00N 58°06' E 006°48'0 0.0
2017-May-22 17:30N 58°06' E 006°48'0 0.0
2017-May-22 17:00N 58°06' E 006°48'0 0.0
2017-May-22 16:30N 58°06' E 006°48'0 0.0
2017-May-22 16:00N 58°06' E 006°48'3 7.0
2017-May-22 15:31N 58°03' E 006°53'2 4.0
2017-May-22 15:00N 58°03' E 006°57'5 5.4
2017-May-22 14:01N 58°06' E 006°48'0 0.0
2017-May-22 13:30N 58°06' E 006°48'0 0.0
2017-May-22 13:00N 58°06' E 006°48'0 0.0
2017-May-22 12:30N 58°06' E 006°48'0 0.0
2017-May-22 12:00N 58°06' E 006°48'0 0.0
2017-May-22 11:30N 58°06' E 006°48'0 0.0
2017-May-22 11:00N 58°06' E 006°48'0 0.0
2017-May-22 10:30N 58°06' E 006°48'0 0.7
2017-May-22 10:01N 58°05' E 006°49'0 0.7
2017-May-22 09:30N 58°06' E 006°48'0 0.0
2017-May-22 09:00N 58°06' E 006°48'0 0.0
2017-May-22 08:30N 58°06' E 006°48'0 0.0
2017-May-22 08:00N 58°06' E 006°48'0 0.0
2017-May-22 07:30N 58°06' E 006°48'0 0.0
2017-May-22 07:00N 58°06' E 006°48'0 0.0
2017-May-22 06:30N 58°06' E 006°48'0 0.0
2017-May-22 06:00N 58°06' E 006°48'0 0.0
2017-May-22 05:30N 58°06' E 006°48'0 0.0
2017-May-22 05:00N 58°06' E 006°48'0 0.0
2017-May-22 04:30N 58°06' E 006°48'0 0.0
2017-May-22 04:00N 58°06' E 006°48'0 0.0
2017-May-22 03:30N 58°06' E 006°48'0 0.0
2017-May-22 03:00N 58°06' E 006°48'0 0.0
2017-May-22 02:30N 58°06' E 006°48'0 0.0
2017-May-22 02:00N 58°06' E 006°48'0 0.0
2017-May-22 01:30N 58°06' E 006°48'0 0.0
2017-May-22 01:00N 58°06' E 006°48'0 0.0
2017-May-22 00:30N 58°06' E 006°48'0 0.0
2017-May-22 00:00N 58°06' E 006°48'0 0.0
2017-May-21 23:30N 58°06' E 006°48'0 0.0
2017-May-21 23:00N 58°06' E 006°48'0 0.0
2017-May-21 22:30N 58°06' E 006°48'0 0.0
2017-May-21 22:00N 58°06' E 006°48'0 0.0
2017-May-21 21:30N 58°06' E 006°48'0 0.0
2017-May-21 21:00N 58°06' E 006°48'0 0.0
2017-May-21 20:30N 58°06' E 006°48'0 0.0
2017-May-21 20:00N 58°06' E 006°48'0 0.0
2017-May-21 19:30N 58°06' E 006°48'0 0.0
2017-May-21 19:00N 58°06' E 006°48'0 0.0
2017-May-21 18:30N 58°06' E 006°48'0 0.0
2017-May-21 18:00N 58°06' E 006°48'0 0.0
2017-May-21 17:30N 58°06' E 006°48'0 0.0
2017-May-21 17:00N 58°06' E 006°48'2 3.6
2017-May-21 16:30N 58°04' E 006°51'5 9.1
2017-May-21 16:00N 58°03' E 006°59'612.4
2017-May-21 15:30N 58°06' E 006°49'0 0.1
2017-May-21 15:00N 58°06' E 006°48'0 0.0
2017-May-21 14:30N 58°06' E 006°48'0 0.0
2017-May-21 13:30N 58°06' E 006°48'0 0.0
2017-May-21 13:00N 58°06' E 006°48'0 0.0
2017-May-21 12:30N 58°06' E 006°48'0 0.0
2017-May-21 12:00N 58°06' E 006°48'0 0.0
2017-May-21 11:30N 58°06' E 006°48'0 0.0
2017-May-21 11:00N 58°06' E 006°48'0 0.0
2017-May-21 10:30N 58°06' E 006°48'0 0.0
2017-May-21 10:00N 58°06' E 006°48'0 0.0
2017-May-21 09:30N 58°06' E 006°48'0 0.0
2017-May-21 09:00N 58°06' E 006°48'0 0.0
2017-May-21 08:30N 58°06' E 006°48'0 0.0
2017-May-21 08:00N 58°06' E 006°48'0 0.0
2017-May-21 07:30N 58°06' E 006°48'4 9.0
2017-May-21 07:00N 58°01' E 006°50'4 8.3
2017-May-21 06:30N 58°05' E 006°49'0 0.9
2017-May-21 06:00N 58°06' E 006°48'0 0.0
2017-May-21 05:30N 58°06' E 006°48'0 0.0
2017-May-21 05:00N 58°06' E 006°48'0 0.0
2017-May-21 04:30N 58°06' E 006°48'0 0.0
2017-May-21 04:00N 58°06' E 006°48'0 0.0
2017-May-21 03:30N 58°06' E 006°48'0 0.0
2017-May-21 03:00N 58°06' E 006°48'0 0.0
2017-May-21 02:30N 58°06' E 006°48'0 0.0
2017-May-21 02:00N 58°06' E 006°48'0 0.0
2017-May-21 01:30N 58°06' E 006°48'0 0.0
2017-May-21 01:00N 58°06' E 006°48'0 0.0
2017-May-21 00:30N 58°06' E 006°48'2 4.9
2017-May-21 00:01N 58°04' E 006°51'2 4.5
2017-May-20 23:30N 58°06' E 006°49'0 0.4
2017-May-20 23:00N 58°06' E 006°48'0 0.0
2017-May-20 22:30N 58°06' E 006°48'0 0.0
2017-May-20 22:01N 58°06' E 006°48'0 0.0
2017-May-20 21:30N 58°06' E 006°48'0 0.0
2017-May-20 21:00N 58°06' E 006°48'0 0.0
2017-May-20 20:30N 58°06' E 006°48'0 0.0
2017-May-20 20:00N 58°06' E 006°48'0 0.0
2017-May-20 19:30N 58°06' E 006°48'0 0.0
2017-May-20 19:00N 58°06' E 006°48'0 0.0
2017-May-20 18:30N 58°06' E 006°48'0 0.0
2017-May-20 18:00N 58°06' E 006°48'0 0.0
2017-May-20 17:30N 58°06' E 006°48'0 0.0
2017-May-20 17:00N 58°06' E 006°48'0 0.0
2017-May-20 16:30N 58°06' E 006°48'0 0.0
2017-May-20 15:59N 58°06' E 006°48'0 0.0
2017-May-20 15:31N 58°06' E 006°48'0 0.0
2017-May-20 14:59N 58°06' E 006°48'0 0.0
2017-May-20 14:30N 58°06' E 006°48'0 0.0
2017-May-20 13:29N 58°06' E 006°48'0 0.0
2017-May-20 12:59N 58°06' E 006°48'0 0.0
2017-May-20 12:30N 58°06' E 006°48'0 0.0
2017-May-20 12:00N 58°06' E 006°48'0 0.0
2017-May-20 11:30N 58°06' E 006°48'0 0.0
2017-May-20 10:58N 58°06' E 006°48'0 0.0
2017-May-20 10:29N 58°06' E 006°48'0 0.0
2017-May-20 10:00N 58°06' E 006°48'0 0.0
2017-May-20 09:29N 58°06' E 006°48'5 9.6
2017-May-20 09:00N 58°03' E 006°56'0 0.8
2017-May-20 08:30N 58°03' E 006°55'4 8.2
2017-May-20 07:59N 58°06' E 006°48'0 0.0
2017-May-20 07:30N 58°06' E 006°48'0 0.0
2017-May-20 06:59N 58°06' E 006°48'0 0.0
2017-May-20 06:30N 58°06' E 006°48'0 0.0
2017-May-20 06:00N 58°06' E 006°48'0 0.0
2017-May-20 05:28N 58°06' E 006°48'0 0.0
2017-May-20 04:58N 58°06' E 006°48'0 0.0
2017-May-20 04:30N 58°06' E 006°48'0 0.0
2017-May-20 04:00N 58°06' E 006°48'0 0.0
2017-May-20 03:29N 58°06' E 006°48'0 0.0
2017-May-20 02:59N 58°06' E 006°48'0 0.0
2017-May-20 02:29N 58°06' E 006°48'0 0.0
2017-May-20 01:59N 58°06' E 006°48'0 0.0
2017-May-20 01:30N 58°06' E 006°48'0 0.0
2017-May-20 00:59N 58°06' E 006°48'0 0.0
2017-May-20 00:30N 58°06' E 006°48'0 0.0
2017-May-19 23:59N 58°06' E 006°48'0 0.0
2017-May-19 23:30N 58°06' E 006°48'0 0.0
2017-May-19 23:00N 58°06' E 006°48'0 0.0
2017-May-19 22:30N 58°06' E 006°48'0 0.0
2017-May-19 22:00N 58°06' E 006°48'0 0.0
2017-May-19 21:29N 58°06' E 006°48'0 0.0
2017-May-19 20:59N 58°06' E 006°48'0 0.0
2017-May-19 20:29N 58°06' E 006°48'0 0.0
2017-May-19 20:01N 58°06' E 006°48'0 0.0
2017-May-19 19:29N 58°06' E 006°48'0 0.0
2017-May-19 19:00N 58°06' E 006°48'0 0.0
2017-May-19 18:29N 58°06' E 006°48'0 0.0
2017-May-19 18:00N 58°06' E 006°48'0 0.0
2017-May-19 17:30N 58°06' E 006°48'0 0.0
2017-May-19 17:00N 58°06' E 006°48'0 0.0
2017-May-19 16:30N 58°06' E 006°48'0 0.0
2017-May-19 16:00N 58°06' E 006°48'3 6.6
2017-May-19 15:29N 58°02' E 006°50'3 6.1
2017-May-19 15:00N 58°05' E 006°49'0 0.5
2017-May-19 14:00N 58°06' E 006°48'0 0.0
2017-May-19 13:30N 58°06' E 006°48'0 0.0
2017-May-19 13:00N 58°06' E 006°48'0 0.0
2017-May-19 12:30N 58°06' E 006°48'0 0.0
2017-May-19 12:00N 58°06' E 006°48'4 7.9
2017-May-19 11:30N 58°03' E 006°54'2 3.4
2017-May-19 11:00N 58°04' E 006°52'2 4.5
2017-May-19 10:30N 58°06' E 006°48'0 0.0
2017-May-19 10:00N 58°06' E 006°48'0 0.0
2017-May-19 09:30N 58°06' E 006°48'0 0.0
2017-May-19 09:00N 58°06' E 006°48'0 0.0
2017-May-19 08:30N 58°06' E 006°48'0 0.0
2017-May-19 08:00N 58°06' E 006°48'0 0.0
2017-May-19 07:30N 58°06' E 006°48'0 0.0
2017-May-19 07:00N 58°06' E 006°48'0 0.0
2017-May-19 06:31N 58°06' E 006°48'0 0.0
2017-May-19 06:00N 58°06' E 006°48'4 8.8
2017-May-19 05:31N 58°01' E 006°48'4 8.1
2017-May-19 05:00N 58°05' E 006°49'1 1.0
2017-May-19 04:30N 58°06' E 006°48'0 0.0
2017-May-19 04:00N 58°06' E 006°48'0 0.0
2017-May-19 03:30N 58°06' E 006°48'0 0.0
2017-May-19 03:00N 58°06' E 006°48'0 0.0
2017-May-19 02:30N 58°06' E 006°48'0 0.0
2017-May-19 02:00N 58°06' E 006°48'0 0.0
2017-May-19 01:30N 58°06' E 006°48'0 0.0
2017-May-19 01:00N 58°06' E 006°48'0 0.0
2017-May-19 00:30N 58°06' E 006°48'0 0.0
2017-May-19 00:00N 58°06' E 006°48'0 0.0
2017-May-18 23:30N 58°06' E 006°48'0 0.0
2017-May-18 23:00N 58°06' E 006°48'0 0.0
2017-May-18 22:30N 58°06' E 006°48'0 0.0
2017-May-18 22:00N 58°06' E 006°48'0 0.0
2017-May-18 21:30N 58°06' E 006°48'0 0.0
2017-May-18 21:00N 58°06' E 006°48'0 0.0
2017-May-18 20:30N 58°06' E 006°48'0 0.0
2017-May-18 20:00N 58°06' E 006°48'0 0.0
2017-May-18 19:30N 58°06' E 006°48'0 0.0
2017-May-18 19:00N 58°06' E 006°48'0 0.0
2017-May-18 18:30N 58°06' E 006°48'0 0.0
2017-May-18 18:00N 58°06' E 006°48'0 0.0
2017-May-18 17:30N 58°06' E 006°48'0 0.0
2017-May-18 17:00N 58°06' E 006°48'0 0.0
2017-May-18 16:30N 58°06' E 006°48'0 0.0
2017-May-18 16:00N 58°06' E 006°48'0 0.0
2017-May-18 15:30N 58°06' E 006°48'0 0.0
2017-May-18 15:00N 58°06' E 006°48'0 0.0
2017-May-18 14:00N 58°06' E 006°48'0 0.0
2017-May-18 13:30N 58°06' E 006°48'0 0.0
2017-May-18 13:00N 58°06' E 006°48'0 0.0
2017-May-18 12:30N 58°06' E 006°48'0 0.0
2017-May-18 12:00N 58°06' E 006°48'0 0.0
2017-May-18 11:30N 58°06' E 006°48'0 0.8
2017-May-18 11:00N 58°06' E 006°49'0 0.8
2017-May-18 10:30N 58°06' E 006°48'0 0.0
2017-May-18 10:00N 58°06' E 006°48'0 0.0
2017-May-18 09:30N 58°06' E 006°48'0 0.0
2017-May-18 09:00N 58°06' E 006°48'0 0.0
2017-May-18 08:30N 58°06' E 006°48'0 0.0
2017-May-18 08:00N 58°06' E 006°48'0 0.0
2017-May-18 07:30N 58°06' E 006°48'0 0.0
2017-May-18 07:00N 58°06' E 006°48'0 0.0
2017-May-18 06:30N 58°06' E 006°48'0 0.0
2017-May-18 06:00N 58°06' E 006°48'0 0.0
2017-May-18 05:30N 58°06' E 006°48'0 0.0
2017-May-18 05:00N 58°06' E 006°48'0 0.0
2017-May-18 04:30N 58°06' E 006°48'1 2.9
2017-May-18 04:00N 58°05' E 006°50'1 2.5
2017-May-18 03:30N 58°06' E 006°49'0 0.5
2017-May-18 03:00N 58°06' E 006°48'0 0.0
2017-May-18 02:30N 58°06' E 006°48'0 0.0
2017-May-18 02:00N 58°06' E 006°48'0 0.0
2017-May-18 01:30N 58°06' E 006°48'0 0.0
2017-May-18 01:00N 58°06' E 006°48'0 0.0
2017-May-18 00:30N 58°06' E 006°48'0 0.0
2017-May-18 00:00N 58°06' E 006°48'0 0.0
2017-May-17 23:30N 58°06' E 006°48'0 0.0
2017-May-17 23:00N 58°06' E 006°48'0 0.0
2017-May-17 22:30N 58°06' E 006°48'0 0.0
2017-May-17 22:00N 58°06' E 006°48'0 0.0
2017-May-17 21:30N 58°06' E 006°48'0 0.0
2017-May-17 21:00N 58°06' E 006°48'0 0.0
2017-May-17 20:30N 58°06' E 006°48'0 0.0
2017-May-17 20:01N 58°06' E 006°48'0 0.0
2017-May-17 19:30N 58°06' E 006°48'0 0.0
2017-May-17 19:00N 58°06' E 006°48'0 0.0
2017-May-17 18:30N 58°06' E 006°48'0 0.0
2017-May-17 18:00N 58°06' E 006°48'0 0.0
2017-May-17 17:30N 58°06' E 006°48'0 0.0
2017-May-17 17:00N 58°06' E 006°48'0 0.0
2017-May-17 16:30N 58°06' E 006°48'0 0.0
2017-May-17 16:00N 58°06' E 006°48'0 0.0
2017-May-17 15:30N 58°06' E 006°48'0 0.0
2017-May-17 15:00N 58°06' E 006°48'0 0.0
2017-May-17 14:00N 58°06' E 006°48'0 0.0
2017-May-17 13:30N 58°06' E 006°48'0 0.0
2017-May-17 13:00N 58°06' E 006°48'0 0.0
2017-May-17 12:30N 58°06' E 006°48'0 0.0
2017-May-17 12:00N 58°06' E 006°48'0 0.0
2017-May-17 11:30N 58°06' E 006°48'0 0.0
2017-May-17 11:00N 58°06' E 006°48'0 0.0
2017-May-17 10:30N 58°06' E 006°48'0 0.0
2017-May-17 10:00N 58°06' E 006°48'0 0.0
2017-May-17 09:30N 58°06' E 006°48'0 0.0
2017-May-17 09:00N 58°06' E 006°48'0 0.0
2017-May-17 08:30N 58°06' E 006°48'0 0.0
2017-May-17 08:00N 58°06' E 006°48'0 0.0
2017-May-17 07:30N 58°06' E 006°48'0 0.0
2017-May-17 07:00N 58°06' E 006°48'0 0.0
2017-May-17 06:30N 58°06' E 006°48'0 0.0
2017-May-17 06:00N 58°06' E 006°48'0 0.0
2017-May-17 05:30N 58°06' E 006°48'0 0.0
2017-May-17 05:00N 58°06' E 006°48'0 0.0
2017-May-17 04:30N 58°06' E 006°48'0 0.0
2017-May-17 04:00N 58°06' E 006°48'0 0.0
2017-May-17 03:30N 58°06' E 006°48'0 0.0
2017-May-17 03:00N 58°06' E 006°48'0 0.0
2017-May-17 02:30N 58°06' E 006°48'0 0.0
2017-May-17 02:00N 58°06' E 006°48'0 0.0
2017-May-17 01:30N 58°06' E 006°48'0 0.0
2017-May-17 01:00N 58°06' E 006°48'0 0.0
2017-May-17 00:30N 58°06' E 006°48'0 0.0
2017-May-17 00:00N 58°06' E 006°48'0 0.0
2017-May-16 23:30N 58°06' E 006°48'0 0.0
2017-May-16 23:00N 58°06' E 006°48'0 0.0
2017-May-16 22:30N 58°06' E 006°48'0 0.0
2017-May-16 22:00N 58°06' E 006°48'0 0.0
2017-May-16 21:30N 58°06' E 006°48'0 0.0
2017-May-16 21:00N 58°06' E 006°48'0 0.0
2017-May-16 20:30N 58°06' E 006°48'0 0.0
2017-May-16 20:00N 58°06' E 006°48'0 0.0
2017-May-16 19:30N 58°06' E 006°48'0 0.0
2017-May-16 19:00N 58°06' E 006°48'0 0.0
2017-May-16 18:30N 58°06' E 006°48'0 0.0
2017-May-16 18:00N 58°06' E 006°48'1 1.7
2017-May-16 17:31N 58°05' E 006°50'510.7
2017-May-16 17:00N 58°03' E 006°59'611.7
2017-May-16 16:30N 58°05' E 006°49'1 1.2
2017-May-16 16:00N 58°06' E 006°48'0 0.0
2017-May-16 15:30N 58°06' E 006°48'0 0.0
2017-May-16 15:00N 58°06' E 006°48'0 0.0
2017-May-16 14:30N 58°06' E 006°48'0 0.0
2017-May-16 13:30N 58°06' E 006°48'0 0.0
2017-May-16 13:00N 58°06' E 006°48'2 3.5
2017-May-16 12:30N 58°04' E 006°51'2 3.5
2017-May-16 12:00N 58°06' E 006°48'0 0.0
2017-May-16 11:30N 58°06' E 006°48'0 0.0
2017-May-16 11:00N 58°06' E 006°48'0 0.0
2017-May-16 10:30N 58°06' E 006°48'0 0.0
2017-May-16 10:00N 58°06' E 006°48'0 0.0
2017-May-16 09:30N 58°06' E 006°48'3 6.1
2017-May-16 09:01N 58°03' E 006°51'2 3.1
2017-May-16 08:30N 58°04' E 006°51'2 3.6
2017-May-16 08:00N 58°06' E 006°48'0 0.0
2017-May-16 07:30N 58°06' E 006°48'0 0.0
2017-May-16 07:00N 58°06' E 006°48'0 0.0
2017-May-16 06:30N 58°06' E 006°48'0 0.0
2017-May-16 06:01N 58°06' E 006°48'0 0.0
2017-May-16 05:30N 58°06' E 006°48'0 0.0
2017-May-16 05:00N 58°06' E 006°48'0 0.0
2017-May-16 04:30N 58°06' E 006°48'0 0.0
2017-May-16 04:00N 58°06' E 006°48'0 0.0
2017-May-16 03:30N 58°06' E 006°48'4 7.4
2017-May-16 03:01N 58°02' E 006°50'4 7.3
2017-May-16 02:31N 58°06' E 006°48'0 0.1
2017-May-16 02:01N 58°06' E 006°48'0 0.0
2017-May-16 01:30N 58°06' E 006°48'0 0.0
2017-May-16 01:00N 58°06' E 006°48'0 0.0
2017-May-16 00:31N 58°06' E 006°48'0 0.0
2017-May-16 00:00N 58°06' E 006°48'0 0.0
2017-May-15 23:31N 58°06' E 006°48'0 0.0
2017-May-15 23:00N 58°06' E 006°48'0 0.0
2017-May-15 22:31N 58°06' E 006°48'0 0.0
2017-May-15 22:01N 58°06' E 006°48'0 0.0
2017-May-15 21:31N 58°06' E 006°48'0 0.0
2017-May-15 21:00N 58°06' E 006°48'0 0.0
2017-May-15 20:30N 58°06' E 006°48'0 0.0
2017-May-15 20:01N 58°06' E 006°48'0 0.0
2017-May-15 19:30N 58°06' E 006°48'0 0.0
2017-May-15 19:01N 58°06' E 006°48'0 0.0
2017-May-15 18:31N 58°06' E 006°48'2 4.2
2017-May-15 18:00N 58°04' E 006°51'4 8.6
2017-May-15 17:31N 58°03' E 006°59'612.4
2017-May-15 17:00N 58°06' E 006°48'0 0.0
2017-May-15 16:30N 58°06' E 006°48'0 0.0
2017-May-15 16:00N 58°06' E 006°48'0 0.0
2017-May-15 15:30N 58°06' E 006°48'0 0.0
2017-May-15 15:00N 58°06' E 006°48'0 0.0
2017-May-15 14:00N 58°06' E 006°48'  

Dump ship's entire track history